Time;durP1;ratioP1;P1;durP2;ratioP2;P2;SDS_P1;SDS_P2;PMS_P1;PMS_P2;Temp;Humidity;BMP_temperature;BMP_pressure;BME280_temperature;BME280_humidity;BME280_pressure;Samples;Min_cycle;Max_cycle;Signal;HPM_P1;HPM_P2
2023/09/22 00:01:54;;;;;;;17.10;7.20;;;;;;;13.29;100.00;101586.59;5052208;28;20319;-67
2023/09/22 00:04:20;;;;;;;12.13;7.13;;;;;;;13.31;100.00;101589.16;5051872;28;20025;-68
2023/09/22 00:06:46;;;;;;;16.27;7.90;;;;;;;13.23;100.00;101573.88;5052439;28;20090;-68
2023/09/22 00:09:11;;;;;;;15.47;9.47;;;;;;;13.24;100.00;101564.00;5052015;28;20060;-65
2023/09/22 00:11:37;;;;;;;15.27;7.63;;;;;;;13.30;100.00;101572.25;5050504;28;20108;-66
2023/09/22 00:14:04;;;;;;;14.40;8.33;;;;;;;13.43;100.00;101571.78;5051900;28;20490;-65
2023/09/22 00:16:29;;;;;;;19.40;8.33;;;;;;;13.53;100.00;101575.16;5052688;28;20057;-66
2023/09/22 00:18:55;;;;;;;17.20;8.33;;;;;;;13.62;100.00;101586.75;5053367;28;20110;-67
2023/09/22 00:21:21;;;;;;;15.33;9.03;;;;;;;13.62;100.00;101570.69;5052007;28;20376;-66
2023/09/22 00:23:47;;;;;;;13.83;7.40;;;;;;;13.66;100.00;101572.03;5051741;28;20031;-67
2023/09/22 00:26:12;;;;;;;18.57;7.30;;;;;;;13.73;100.00;101578.41;5051906;28;20033;-67
2023/09/22 00:28:38;;;;;;;11.03;6.77;;;;;;;13.70;100.00;101576.06;5051586;28;20071;-65
2023/09/22 00:31:03;;;;;;;11.87;6.60;;;;;;;13.67;100.00;101576.41;5050295;28;20029;-66
2023/09/22 00:33:31;;;;;;;11.00;5.47;;;;;;;13.69;100.00;101582.41;5052768;28;20055;-70
2023/09/22 00:36:03;;;;;;;11.00;5.50;;;;;;;13.63;100.00;101569.69;5051640;28;20555;-66
2023/09/22 00:38:28;;;;;;;11.87;5.33;;;;;;;13.53;100.00;101561.78;5052653;28;20025;-65
2023/09/22 00:40:54;;;;;;;9.03;5.93;;;;;;;13.52;100.00;101564.63;5052050;28;20086;-66
2023/09/22 00:43:20;;;;;;;10.10;5.00;;;;;;;13.39;100.00;101565.09;5051858;28;20408;-68
2023/09/22 00:45:50;;;;;;;13.17;5.50;;;;;;;13.55;100.00;101588.38;5051522;28;20136;-65
2023/09/22 00:48:27;;;;;;;8.50;4.73;;;;;;;13.49;100.00;101583.69;5050654;28;20361;-66
2023/09/22 00:50:54;;;;;;;10.80;5.20;;;;;;;13.44;100.00;101577.97;5052147;28;20468;-66
2023/09/22 00:53:20;;;;;;;9.47;5.43;;;;;;;13.41;100.00;101580.97;5055014;28;20464;-67
2023/09/22 00:55:48;;;;;;;7.37;5.03;;;;;;;13.33;100.00;101577.28;5054989;28;20055;-66
2023/09/22 00:58:14;;;;;;;7.03;5.27;;;;;;;13.40;100.00;101581.97;5054896;28;20041;-66
2023/09/22 01:00:43;;;;;;;7.87;4.43;;;;;;;13.30;100.00;101574.09;5053614;28;20025;-66
2023/09/22 01:03:08;;;;;;;6.90;3.90;;;;;;;13.30;100.00;101582.13;5055232;28;20031;-66
2023/09/22 01:05:35;;;;;;;12.50;5.03;;;;;;;13.05;100.00;101535.66;5054882;28;20033;-67
2023/09/22 01:08:00;;;;;;;10.40;4.77;;;;;;;13.28;100.00;101576.91;5055393;28;20036;-67
2023/09/22 01:10:37;;;;;;;9.50;5.60;;;;;;;13.29;100.00;101578.56;5054725;28;20024;-64
2023/09/22 01:13:04;;;;;;;9.00;4.67;;;;;;;13.33;100.00;101585.31;5054401;28;20032;-66
2023/09/22 01:15:33;;;;;;;8.93;4.80;;;;;;;13.31;100.00;101584.63;5054511;28;20075;-66
2023/09/22 01:17:59;;;;;;;8.27;5.13;;;;;;;13.12;100.00;101542.03;5054568;28;20040;-66
2023/09/22 01:20:25;;;;;;;5.87;4.43;;;;;;;13.24;100.00;101562.16;5054715;28;20029;-68
2023/09/22 01:22:51;;;;;;;10.87;5.73;;;;;;;13.13;100.00;101546.38;5054691;28;20182;-66
2023/09/22 01:25:17;;;;;;;8.30;5.37;;;;;;;13.23;100.00;101555.16;5054992;28;20037;-67
2023/09/22 01:27:42;;;;;;;12.40;5.20;;;;;;;13.24;100.00;101561.34;5054242;28;20035;-66
2023/09/22 01:30:09;;;;;;;9.80;5.10;;;;;;;13.10;100.00;101545.88;5054702;28;20086;-66
2023/09/22 01:32:39;;;;;;;10.50;4.67;;;;;;;13.13;100.00;101549.06;5054032;28;20052;-66
2023/09/22 01:35:09;;;;;;;7.70;5.10;;;;;;;13.26;100.00;101575.38;5054355;28;20037;-65
2023/09/22 01:37:47;;;;;;;8.33;4.67;;;;;;;13.28;100.00;101568.03;5053016;28;20425;-66
2023/09/22 01:40:16;;;;;;;13.68;5.15;;;;;;;13.27;100.00;101555.66;5054593;28;20064;-68
2023/09/22 01:42:42;;;;;;;10.17;5.00;;;;;;;13.23;100.00;101539.09;5054550;28;20028;-67
2023/09/22 01:45:07;;;;;;;8.43;5.70;;;;;;;13.28;100.00;101525.22;5054342;28;20040;-66
2023/09/22 01:47:33;;;;;;;8.53;4.90;;;;;;;13.56;100.00;101565.97;5054232;28;20055;-66
2023/09/22 01:50:00;;;;;;;9.60;4.57;;;;;;;13.66;100.00;101569.38;5054065;28;20021;-66
2023/09/22 01:52:25;;;;;;;11.37;5.27;;;;;;;13.65;100.00;101559.66;5053837;28;20106;-67
2023/09/22 01:54:51;;;;;;;8.70;5.67;;;;;;;13.70;100.00;101557.31;5054096;28;20456;-65
2023/09/22 01:57:19;;;;;;;11.53;5.13;;;;;;;13.79;100.00;101560.84;5054021;28;20052;-68
2023/09/22 01:59:45;;;;;;;8.70;5.37;;;;;;;13.86;100.00;101565.38;5054025;28;20037;-68
2023/09/22 02:02:11;;;;;;;10.57;5.57;;;;;;;13.95;100.00;101568.94;5053794;28;20032;-68
2023/09/22 02:04:36;;;;;;;7.90;5.53;;;;;;;14.04;100.00;101559.06;5053452;28;20037;-66
2023/09/22 02:07:03;;;;;;;7.07;4.50;;;;;;;14.01;100.00;101548.69;5053691;28;20025;-66
2023/09/22 02:09:28;;;;;;;9.97;5.07;;;;;;;14.09;100.00;101554.03;5053521;28;20461;-67
2023/09/22 02:11:54;;;;;;;11.53;5.87;;;;;;;14.07;100.00;101537.28;5053750;28;20017;-67
2023/09/22 02:14:19;;;;;;;15.07;5.87;;;;;;;14.17;100.00;101543.34;5052399;28;20116;-67
2023/09/22 02:16:45;;;;;;;11.77;5.20;;;;;;;14.16;100.00;101530.94;5053602;28;20052;-68
2023/09/22 02:19:11;;;;;;;10.93;5.30;;;;;;;14.21;100.00;101542.00;5053486;28;20033;-66
2023/09/22 02:21:37;;;;;;;9.47;5.10;;;;;;;14.27;100.00;101549.38;5053658;28;20035;-66
2023/09/22 02:24:23;;;;;;;10.43;5.37;;;;;;;14.29;100.00;101552.72;5038963;28;20029;-66
2023/09/22 02:26:48;;;;;;;6.43;4.87;;;;;;;14.38;100.00;101556.22;5056860;28;20387;-66
2023/09/22 02:29:14;;;;;;;10.37;4.93;;;;;;;14.32;100.00;101549.69;5057525;28;20031;-67
2023/09/22 02:31:40;;;;;;;8.43;5.13;;;;;;;14.33;100.00;101559.41;5056398;28;20049;-67
2023/09/22 02:34:07;;;;;;;7.90;5.57;;;;;;;14.19;100.00;101552.06;5053103;28;20082;-66
2023/09/22 02:36:32;;;;;;;6.53;4.63;;;;;;;14.09;100.00;101544.16;5051967;28;20474;-67
2023/09/22 02:38:58;;;;;;;10.53;5.63;;;;;;;14.08;100.00;101565.75;5053274;28;20175;-66
2023/09/22 02:41:24;;;;;;;9.70;5.10;;;;;;;13.71;100.00;101512.66;5053325;28;20503;-66
2023/09/22 02:43:49;;;;;;;9.40;5.57;;;;;;;13.97;100.00;101566.94;5052931;28;20025;-65
2023/09/22 02:46:15;;;;;;;12.67;5.80;;;;;;;13.90;100.00;101566.75;5052857;28;20025;-67
2023/09/22 02:48:40;;;;;;;9.43;5.47;;;;;;;13.82;100.00;101566.72;5052966;28;20036;-66
2023/09/22 02:51:07;;;;;;;12.53;6.27;;;;;;;13.64;100.00;101544.59;5054817;28;20032;-66
2023/09/22 02:53:33;;;;;;;7.97;5.10;;;;;;;13.69;100.00;101557.50;5055413;28;20029;-66
2023/09/22 02:56:05;;;;;;;7.03;5.53;;;;;;;13.70;100.00;101561.84;5054210;28;20471;-65
2023/09/22 02:58:32;;;;;;;10.17;5.50;;;;;;;13.64;100.00;101563.34;5053082;28;20028;-65
2023/09/22 03:00:58;;;;;;;11.03;6.70;;;;;;;13.59;100.00;101554.97;5052560;28;20078;-66
2023/09/22 03:03:24;;;;;;;11.20;5.67;;;;;;;13.52;100.00;101549.41;5052705;28;20025;-67
2023/09/22 03:05:49;;;;;;;8.10;5.23;;;;;;;13.29;100.00;101506.34;5052622;28;20032;-66
2023/09/22 03:08:15;;;;;;;9.70;6.00;;;;;;;13.56;100.00;101555.25;5052703;28;20415;-66
2023/09/22 03:10:41;;;;;;;8.93;5.87;;;;;;;13.54;100.00;101549.25;5052499;28;20110;-66
2023/09/22 03:13:06;;;;;;;10.07;6.20;;;;;;;13.53;100.00;101558.28;5052908;28;20037;-69
2023/09/22 03:15:34;;;;;;;8.10;5.93;;;;;;;13.45;100.00;101542.19;5051416;28;20021;-65
2023/09/22 03:17:59;;;;;;;8.33;6.27;;;;;;;13.48;100.00;101549.91;5052430;28;20086;-64
2023/09/22 03:20:26;;;;;;;9.37;6.47;;;;;;;13.43;100.00;101545.03;5052296;28;20470;-66
2023/09/22 03:22:52;;;;;;;10.43;6.23;;;;;;;13.51;100.00;101552.25;5051293;28;20060;-67
2023/09/22 03:25:17;;;;;;;11.47;6.30;;;;;;;13.46;100.00;101544.72;5052513;28;20368;-65
2023/09/22 03:27:44;;;;;;;10.60;6.07;;;;;;;13.40;100.00;101528.47;5052594;28;20029;-66
2023/09/22 03:30:11;;;;;;;10.67;6.33;;;;;;;13.56;100.00;101552.59;5052462;28;20346;-68
2023/09/22 03:32:39;;;;;;;9.57;6.93;;;;;;;13.53;100.00;101555.59;5051779;28;20400;-65
2023/09/22 03:35:06;;;;;;;8.93;5.57;;;;;;;13.51;100.00;101555.75;5052133;28;20044;-68
2023/09/22 03:37:32;;;;;;;11.90;7.50;;;;;;;13.44;100.00;101545.88;5052138;28;20120;-66
2023/09/22 03:39:57;;;;;;;13.13;6.80;;;;;;;13.47;100.00;101551.72;5052345;28;20539;-66
2023/09/22 03:42:24;;;;;;;12.43;7.17;;;;;;;13.41;100.00;101544.34;5050778;28;20052;-66
2023/09/22 03:44:50;;;;;;;12.20;6.57;;;;;;;13.50;100.00;101561.28;5052536;28;20094;-68
2023/09/22 03:47:16;;;;;;;10.73;6.63;;;;;;;13.41;100.00;101548.88;5051640;28;20029;-67
2023/09/22 03:49:42;;;;;;;15.83;6.80;;;;;;;13.50;100.00;101564.78;5052119;28;20082;-66
2023/09/22 03:52:07;;;;;;;16.20;6.60;;;;;;;13.48;100.00;101552.56;5052110;28;20035;-66
2023/09/22 03:54:33;;;;;;;10.47;7.17;;;;;;;13.46;100.00;101549.22;5051813;28;20025;-65
2023/09/22 03:56:59;;;;;;;11.70;7.03;;;;;;;13.38;100.00;101530.47;5051860;28;20112;-66
2023/09/22 03:59:25;;;;;;;10.63;6.80;;;;;;;13.47;100.00;101541.03;5052039;28;20028;-66
2023/09/22 04:01:51;;;;;;;11.43;6.93;;;;;;;13.59;100.00;101557.66;5050676;28;20500;-66
2023/09/22 04:04:17;;;;;;;10.10;7.17;;;;;;;13.59;100.00;101549.63;5052173;28;20495;-66
2023/09/22 04:06:42;;;;;;;10.97;6.83;;;;;;;13.70;100.00;101561.84;5051873;28;20028;-67
2023/09/22 04:09:20;;;;;;;13.10;7.70;;;;;;;13.75;100.00;101560.34;5051872;28;20060;-68
2023/09/22 04:11:45;;;;;;;10.60;8.63;;;;;;;13.72;100.00;101558.00;5051791;28;20031;-64
2023/09/22 04:14:11;;;;;;;11.87;8.20;;;;;;;13.74;100.00;101553.31;5051612;28;20037;-66
2023/09/22 04:16:36;;;;;;;9.80;7.60;;;;;;;13.73;100.00;101545.44;5050519;28;20115;-66
2023/09/22 04:19:03;;;;;;;12.63;7.53;;;;;;;13.86;100.00;101556.50;5050823;28;20036;-67
2023/09/22 04:21:29;;;;;;;15.33;7.30;;;;;;;13.92;100.00;101545.16;5051854;28;20059;-66
2023/09/22 04:23:57;;;;;;;10.27;7.10;;;;;;;14.01;100.00;101560.22;5051486;28;20047;-67
2023/09/22 04:26:29;;;;;;;9.73;6.72;;;;;;;14.12;100.00;101562.56;5053505;28;20047;-66
2023/09/22 04:28:59;;;;;;;12.90;6.90;;;;;;;14.18;100.00;101566.44;5055620;28;20432;-67
2023/09/22 04:31:28;;;;;;;10.03;7.50;;;;;;;14.19;100.00;101557.41;5054242;28;20039;-68
2023/09/22 04:33:54;;;;;;;;;;;;;;;14.32;100.00;101563.09;5055034;28;20048;-67
2023/09/22 04:36:21;;;;;;;10.83;7.13;;;;;;;14.34;100.00;101562.94;5037721;28;19919;-65
2023/09/22 04:38:50;;;;;;;11.98;8.02;;;;;;;14.39;100.00;101566.78;5055376;28;20040;-68
2023/09/22 04:41:19;;;;;;;;;;;;;;;14.48;100.00;101556.94;5056054;28;20063;-72
2023/09/22 04:43:48;;;;;;;10.70;7.50;;;;;;;14.47;100.00;101561.47;5054213;28;19948;-68
2023/09/22 04:46:19;;;;;;;13.50;7.40;;;;;;;14.50;100.00;101554.91;5055232;28;20028;-66
2023/09/22 04:48:46;;;;;;;11.10;7.27;;;;;;;14.54;100.00;101551.72;5054420;28;20379;-68
2023/09/22 04:51:13;;;;;;;11.10;7.30;;;;;;;14.69;100.00;101570.63;5054602;28;20116;-71
2023/09/22 04:53:41;;;;;;;9.67;7.03;;;;;;;14.76;100.00;101560.09;5053900;28;20029;-67
2023/09/22 04:56:07;;;;;;;10.00;6.75;;;;;;;14.80;100.00;101564.09;5037748;28;20514;-68
2023/09/22 04:58:33;;;;;;;12.90;7.60;;;;;;;14.89;100.00;101576.47;5054997;28;20037;-66
2023/09/22 05:01:01;;;;;;;8.67;6.60;;;;;;;14.96;100.00;101568.56;5054618;28;20029;-67
2023/09/22 05:03:30;;;;;;;15.07;7.88;;;;;;;14.82;100.00;101544.16;5053697;28;20041;-70
2023/09/22 05:06:06;;;;;;;8.77;6.70;;;;;;;15.05;100.00;101573.75;5049407;28;20151;-66
2023/09/22 05:08:33;;;;;;;13.87;7.93;;;;;;;15.08;100.00;101567.22;5053159;28;20116;-66
2023/09/22 05:11:03;;;;;;;14.23;7.20;;;;;;;15.12;100.00;101566.69;5054777;28;20123;-66
2023/09/22 05:13:29;;;;;;;10.70;7.70;;;;;;;15.11;100.00;101559.66;5054856;28;20048;-64
2023/09/22 05:15:54;;;;;;;11.23;7.60;;;;;;;15.10;100.00;101557.97;5054609;28;20029;-67
2023/09/22 05:18:20;;;;;;;10.07;6.97;;;;;;;15.14;100.00;101559.31;5054556;28;20037;-65
2023/09/22 05:20:45;;;;;;;13.77;7.23;;;;;;;15.16;100.00;101562.66;5053675;28;20464;-66
2023/09/22 05:23:11;;;;;;;13.30;7.70;;;;;;;15.10;100.00;101552.63;5053498;28;20350;-69
2023/09/22 05:25:40;;;;;;;11.47;7.23;;;;;;;15.18;100.00;101566.00;5053493;28;20111;-69
2023/09/22 05:28:09;;;;;;;13.17;7.67;;;;;;;15.00;100.00;101541.22;5055197;28;20025;-69
2023/09/22 05:30:38;;;;;;;12.47;8.20;;;;;;;15.02;100.00;101549.09;5054832;28;20025;-66
2023/09/22 05:33:06;;;;;;;10.30;8.00;;;;;;;15.04;100.00;101561.38;5054327;28;20143;-67
2023/09/22 05:35:33;;;;;;;10.32;7.43;;;;;;;15.09;100.00;101561.69;5053167;28;20070;-70
2023/09/22 05:37:58;;;;;;;13.40;7.27;;;;;;;15.15;100.00;101574.38;5053361;28;20025;-71
2023/09/22 05:40:26;;;;;;;12.57;6.73;;;;;;;15.11;100.00;101559.66;5054619;28;20561;-68
2023/09/22 05:42:51;;;;;;;11.90;7.13;;;;;;;15.26;100.00;101577.69;5053135;28;20024;-65
2023/09/22 05:45:17;;;;;;;11.57;7.00;;;;;;;15.29;100.00;101562.09;5052836;28;20051;-69
2023/09/22 05:47:42;;;;;;;11.90;7.07;;;;;;;15.45;100.00;101580.81;5054108;28;20383;-68
2023/09/22 05:50:10;;;;;;;9.63;6.67;;;;;;;15.53;100.00;101571.88;5054889;28;20053;-68
2023/09/22 05:52:37;;;;;;;15.57;6.47;;;;;;;15.60;100.00;101564.81;5053970;28;20083;-67
2023/09/22 05:55:04;;;;;;;11.70;6.83;;;;;;;15.80;100.00;101579.50;5054163;28;20076;-67
2023/09/22 05:57:30;;;;;;;12.27;6.70;;;;;;;15.85;100.00;101575.44;5054036;28;20029;-68
2023/09/22 05:59:57;;;;;;;8.60;6.17;;;;;;;15.90;100.00;101565.84;5053724;28;20120;-68
2023/09/22 06:02:24;;;;;;;11.80;6.43;;;;;;;16.00;100.00;101565.59;5053814;28;20029;-67
2023/09/22 06:04:52;;;;;;;8.53;6.40;;;;;;;16.13;100.00;101581.97;5053644;28;20040;-67
2023/09/22 06:07:20;;;;;;;8.80;5.63;;;;;;;16.08;100.00;101555.63;5053795;28;20050;-68
2023/09/22 06:09:45;;;;;;;17.30;6.43;;;;;;;16.26;100.00;101587.59;5053802;28;20029;-67
2023/09/22 06:12:11;;;;;;;11.37;6.63;;;;;;;16.27;100.00;101581.19;5053849;28;20178;-67
2023/09/22 06:14:39;;;;;;;9.83;6.83;;;;;;;16.32;100.00;101576.13;5052471;28;20456;-67
2023/09/22 06:17:04;;;;;;;12.52;6.28;;;;;;;16.38;100.00;101572.69;5053424;28;20032;-68
2023/09/22 06:19:31;;;;;;;12.40;5.90;;;;;;;16.39;100.00;101566.31;5052001;28;20044;-65
2023/09/22 06:21:57;;;;;;;9.07;6.50;;;;;;;16.42;100.00;101548.97;5053605;28;20025;-68
2023/09/22 06:24:24;;;;;;;12.30;6.47;;;;;;;16.59;100.00;101571.19;5053433;28;20170;-68
2023/09/22 06:26:50;;;;;;;7.97;6.35;;;;;;;16.66;100.00;101577.53;5053121;28;20056;-67
2023/09/22 06:29:17;;;;;;;12.37;6.87;;;;;;;16.65;100.00;101578.50;5053029;28;20032;-66
2023/09/22 06:31:43;;;;;;;9.97;7.10;;;;;;;16.56;100.00;101567.00;5053059;28;20048;-70
2023/09/22 06:34:09;;;;;;;8.38;6.20;;;;;;;16.57;100.00;101570.53;5052956;28;20102;-66
2023/09/22 06:36:35;;;;;;;14.63;7.77;;;;;;;16.26;100.00;101533.00;5053440;28;20041;-68
2023/09/22 06:39:07;;;;;;;14.40;7.37;;;;;;;16.46;100.00;101576.31;5053288;28;20175;-67
2023/09/22 06:41:33;;;;;;;15.13;7.23;;;;;;;16.36;100.00;101576.59;5053105;28;20024;-66
2023/09/22 06:43:59;;;;;;;8.85;6.63;;;;;;;16.37;100.00;101579.09;5054996;28;20017;-66
2023/09/22 06:46:25;;;;;;;11.93;6.90;;;;;;;16.28;100.00;101580.19;5052780;28;20028;-66
2023/09/22 06:48:50;;;;;;;10.10;6.90;;;;;;;15.99;100.00;101531.69;5053214;28;20636;-66
2023/09/22 06:51:19;;;;;;;8.60;7.77;;;;;;;16.26;100.00;101570.63;5052470;28;20028;-69
2023/09/22 06:53:44;;;;;;;13.68;7.80;;;;;;;16.31;100.00;101582.50;5052066;28;20087;-66
2023/09/22 06:56:10;;;;;;;14.73;7.10;;;;;;;16.33;100.00;101576.94;5054091;28;20447;-67
2023/09/22 06:58:38;;;;;;;13.93;7.73;;;;;;;16.20;100.00;101561.44;5058722;28;20415;-68
2023/09/22 07:01:10;;;;;;;13.77;7.37;;;;;;;16.32;100.00;101586.88;5061240;28;20114;-68
2023/09/22 07:03:38;;;;;;;14.87;8.50;;;;;;;16.40;100.00;101584.09;5060205;28;20029;-67
2023/09/22 07:06:06;;;;;;;10.33;6.87;;;;;;;16.44;100.00;101573.81;5054417;28;20119;-67
2023/09/22 07:08:31;;;;;;;11.00;6.70;;;;;;;16.53;100.00;101572.75;5049533;28;20026;-66
2023/09/22 07:11:01;;;;;;;11.83;7.27;;;;;;;16.59;100.00;101574.72;5040231;28;20025;-67
2023/09/22 07:13:27;;;;;;;17.20;7.07;;;;;;;16.62;100.00;101566.28;5034971;28;20428;-68
2023/09/22 07:15:53;;;;;;;20.35;6.57;;;;;;;16.62;100.00;101571.66;5033726;28;20025;-68
2023/09/22 07:18:19;;;;;;;10.02;6.10;;;;;;;16.71;100.00;101581.34;5053390;28;20045;-66
2023/09/22 07:20:46;;;;;;;13.67;7.87;;;;;;;16.13;100.00;101476.31;5055187;28;20033;-67
2023/09/22 07:23:12;;;;;;;12.48;6.30;;;;;;;16.63;100.00;101553.66;5053748;28;20029;-66
2023/09/22 07:25:38;;;;;;;13.02;5.88;;;;;;;16.63;100.00;101548.28;5055014;28;20075;-67
2023/09/22 07:28:04;;;;;;;12.63;6.80;;;;;;;16.78;100.00;101569.88;5054627;28;20059;-65
2023/09/22 07:30:29;;;;;;;13.43;6.30;;;;;;;16.82;100.00;101572.00;5055077;28;20100;-67
2023/09/22 07:32:55;;;;;;;10.73;6.25;;;;;;;16.95;100.00;101587.50;5055882;28;20045;-67
2023/09/22 07:35:22;;;;;;;11.38;5.65;;;;;;;17.02;100.00;101583.03;5058290;28;20140;-67
2023/09/22 07:37:48;;;;;;;14.73;6.53;;;;;;;16.82;100.00;101539.72;5059214;28;20029;-70
2023/09/22 07:40:13;;;;;;;13.85;7.15;;;;;;;17.14;100.00;101584.28;5053102;28;20377;-66
2023/09/22 07:42:41;;;;;;;11.20;7.43;;;;;;;17.06;100.00;101561.97;5056325;28;20027;-67
2023/09/22 07:45:07;;;;;;;11.38;5.75;;;;;;;17.20;100.00;101580.00;5054056;28;20033;-67
2023/09/22 07:47:34;;;;;;;12.95;6.57;;;;;;;17.13;100.00;101552.16;5053366;28;20123;-68
2023/09/22 07:50:00;;;;;;;11.50;5.50;;;;;;;17.36;100.00;101585.19;5052436;28;20163;-67
2023/09/22 07:52:26;;;;;;;9.90;6.00;;;;;;;17.26;100.00;101572.00;5052692;28;20562;-67
2023/09/22 07:54:52;;;;;;;8.88;5.28;;;;;;;17.36;100.00;101579.81;5051157;28;20460;-67
2023/09/22 07:57:18;;;;;;;8.77;5.50;;;;;;;17.41;100.00;101573.84;5053824;28;20075;-68
2023/09/22 07:59:44;;;;;;;8.27;4.97;;;;;;;17.57;100.00;101593.31;5054031;28;20024;-70
2023/09/22 08:02:10;;;;;;;11.57;5.75;;;;;;;17.60;100.00;101586.72;5059024;28;20021;-69
2023/09/22 08:04:35;;;;;;;7.45;6.03;;;;;;;17.62;100.00;101585.50;5059668;28;20059;-70
2023/09/22 08:07:03;;;;;;;12.90;5.88;;;;;;;17.52;100.00;101558.03;5063778;28;20043;-70
2023/09/22 08:09:28;;;;;;;14.33;5.40;;;;;;;17.71;100.00;101571.97;5065131;28;20032;-69
2023/09/22 08:11:54;;;;;;;11.10;5.18;;;;;;;17.91;100.00;101584.63;5063592;28;20073;-68
2023/09/22 08:14:21;;;;;;;28.15;15.73;;;;;;;17.95;100.00;101588.63;5061403;28;20426;-68
2023/09/22 08:16:48;;;;;;;7.90;5.72;;;;;;;18.00;100.00;101582.66;5060586;28;20480;-68
2023/09/22 08:19:14;;;;;;;10.85;5.47;;;;;;;17.98;100.00;101575.81;5063180;28;20032;-68
2023/09/22 08:21:40;;;;;;;7.28;5.43;;;;;;;18.09;100.00;101592.28;5063427;28;20028;-70
2023/09/22 08:24:07;;;;;;;12.00;6.45;;;;;;;18.13;100.00;101587.34;5067750;28;20033;-67
2023/09/22 08:26:34;;;;;;;7.70;4.87;;;;;;;18.19;100.00;101587.41;5067225;28;20481;-68
2023/09/22 08:29:09;;;;;;;13.18;5.60;;;;;;;18.22;100.00;101584.34;5057462;28;20024;-68
2023/09/22 08:31:36;;;;;;;10.25;5.13;;;;;;;18.26;99.27;101582.94;5060251;28;20060;-68
2023/09/22 08:34:04;;;;;;;8.27;5.38;;;;;;;18.30;98.76;101566.38;5065112;28;20036;-71
2023/09/22 08:36:30;;;;;;;9.48;5.40;;;;;;;18.37;98.08;101568.09;5064891;28;20036;-70
2023/09/22 08:38:56;;;;;;;9.10;4.43;;;;;;;18.44;97.42;101574.34;5058352;28;20115;-70
2023/09/22 08:41:26;;;;;;;10.15;5.28;;;;;;;18.48;97.04;101570.25;5058863;28;20447;-70
2023/09/22 08:43:53;;;;;;;9.13;5.32;;;;;;;18.40;96.44;101546.13;5057314;28;20021;-70
2023/09/22 08:46:19;;;;;;;8.15;4.38;;;;;;;18.45;94.69;101542.81;5058828;28;20120;-70
2023/09/22 08:48:44;;;;;;;8.88;4.90;;;;;;;18.71;94.34;101561.94;5058592;28;20093;-70
2023/09/22 08:51:10;;;;;;;9.15;5.28;;;;;;;18.77;93.48;101563.03;5058677;28;20025;-71
2023/09/22 08:53:36;;;;;;;9.55;5.25;;;;;;;18.89;93.26;101572.25;5058601;28;20028;-70
2023/09/22 08:56:04;;;;;;;15.82;5.28;;;;;;;18.91;92.73;101569.34;5057258;28;20017;-70
2023/09/22 08:58:30;;;;;;;5.78;4.82;;;;;;;19.00;90.87;101578.97;5059071;28;20372;-72
2023/09/22 09:00:55;;;;;;;15.65;5.45;;;;;;;19.07;91.86;101574.44;5058363;28;20120;-70
2023/09/22 09:03:21;;;;;;;8.90;4.78;;;;;;;18.88;92.22;101532.81;5058363;28;20403;-72
2023/09/22 09:05:52;;;;;;;8.68;5.13;;;;;;;19.11;92.93;101567.63;5058579;28;20376;-71
2023/09/22 09:08:23;;;;;;;7.30;4.18;;;;;;;19.09;91.86;101556.19;5056886;28;20033;-71
2023/09/22 09:10:50;;;;;;;6.88;4.60;;;;;;;19.14;92.17;101549.16;5058254;28;20434;-70
2023/09/22 09:13:18;;;;;;;11.13;5.57;;;;;;;19.26;90.93;101556.69;5055680;28;20036;-67
2023/09/22 09:15:49;;;;;;;9.68;4.90;;;;;;;19.37;89.97;101559.66;5055015;28;20059;-68
2023/09/22 09:18:17;;;;;;;9.80;4.88;;;;;;;19.37;90.48;101554.25;5054918;28;20119;-69
2023/09/22 09:20:44;;;;;;;9.23;4.17;;;;;;;19.45;90.19;101551.38;5054640;28;20116;-67
2023/09/22 09:23:21;;;;;;;7.47;4.75;;;;;;;19.52;89.70;101553.25;5053498;28;20021;-67
2023/09/22 09:25:49;;;;;;;6.72;4.00;;;;;;;19.45;90.54;101537.88;5054704;28;20033;-69
2023/09/22 09:28:17;;;;;;;6.15;4.55;;;;;;;19.56;89.12;101541.03;5055060;28;20496;-68
2023/09/22 09:30:54;;;;;;;12.73;4.30;;;;;;;19.65;89.03;101539.81;5054569;28;20033;-69
2023/09/22 09:33:22;;;;;;;5.72;4.32;;;;;;;19.76;87.99;101552.75;5054450;28;20103;-66
2023/09/22 09:35:48;;;;;;;7.72;4.28;;;;;;;19.79;87.67;101553.19;5054258;28;20045;-67
2023/09/22 09:38:14;;;;;;;6.40;4.55;;;;;;;19.78;88.26;101534.47;5054630;28;20041;-69
2023/09/22 09:40:39;;;;;;;5.93;4.60;;;;;;;19.74;87.74;101528.63;5054662;28;20075;-68
2023/09/22 09:43:14;;;;;;;8.77;4.38;;;;;;;19.86;86.89;101553.19;5054737;28;20025;-71
2023/09/22 09:45:45;;;;;;;10.88;4.82;;;;;;;19.95;86.49;101549.28;5054685;28;20596;-70
2023/09/22 09:48:16;;;;;;;12.48;4.93;;;;;;;19.84;86.92;101524.69;5054502;28;20024;-70
2023/09/22 09:50:45;;;;;;;6.25;4.40;;;;;;;19.73;86.71;101518.03;5054394;28;20424;-70
2023/09/22 09:53:18;;;;;;;20.58;4.80;;;;;;;19.90;85.56;101538.22;5054397;28;20021;-68
2023/09/22 09:55:45;;;;;;;9.88;4.55;;;;;;;20.03;86.46;101554.47;5054126;28;20120;-70
2023/09/22 09:58:11;;;;;;;8.10;4.95;;;;;;;20.10;87.33;101558.03;5053658;28;20353;-71
2023/09/22 10:00:39;;;;;;;7.00;4.10;;;;;;;20.11;84.96;101551.56;5054155;28;20477;-76
2023/09/22 10:03:09;;;;;;;5.75;4.07;;;;;;;20.11;85.23;101545.34;5053504;28;20028;-70
2023/09/22 10:05:36;;;;;;;8.20;5.22;;;;;;;19.91;85.03;101510.16;5052403;28;20036;-70
2023/09/22 10:08:04;;;;;;;8.88;4.10;;;;;;;20.17;84.96;101559.91;5052790;28;20052;-67
2023/09/22 10:10:30;;;;;;;6.22;3.95;;;;;;;20.14;83.73;101542.22;5055025;28;20056;-68
2023/09/22 10:12:56;;;;;;;6.65;4.25;;;;;;;20.14;82.84;101533.25;5052081;28;20025;-67
2023/09/22 10:15:57;;;;;;;7.38;3.65;;;;;;;20.26;83.16;101548.69;5054737;28;20024;-67
2023/09/22 10:18:48;;;;;;;11.68;4.22;;;;;;;20.23;83.07;101548.25;5061181;28;20033;-70
2023/09/22 10:21:29;;;;;;;8.68;4.30;;;;;;;20.23;83.40;101546.38;5057121;28;20534;-69
2023/09/22 10:24:17;;;;;;;9.75;4.30;;;;;;;20.32;83.15;101553.25;5053068;28;20491;-69
2023/09/22 10:27:07;;;;;;;;;;;;;;;20.38;82.01;101543.47;5054333;28;20102;-69
2023/09/22 10:29:35;;;;;;;6.13;3.90;;;;;;;20.46;80.92;101543.28;5055915;28;19962;-68
2023/09/22 10:32:18;;;;;;;4.43;3.47;;;;;;;20.48;80.24;101541.19;5054108;28;20373;-71
2023/09/22 10:34:56;;;;;;;10.05;4.35;;;;;;;20.45;81.41;101525.41;5056874;28;20049;-69
2023/09/22 10:37:27;;;;;;;6.50;3.72;;;;;;;20.54;80.41;101528.75;5057233;28;20021;-67
2023/09/22 10:40:08;;;;;;;8.45;4.72;;;;;;;20.54;79.57;101528.75;5058384;28;20028;-70
2023/09/22 10:42:39;;;;;;;5.90;4.78;;;;;;;20.38;79.94;101505.59;5060350;28;20029;-68
2023/09/22 10:45:05;;;;;;;13.60;4.00;;;;;;;20.55;79.08;101525.00;5058586;28;20024;-68
2023/09/22 10:47:55;;;;;;;6.22;3.88;;;;;;;20.62;79.40;101521.22;5057067;28;21055;-68
2023/09/22 10:50:24;;;;;;;10.30;4.45;;;;;;;20.57;78.99;101514.78;5057603;28;20025;-70
2023/09/22 10:53:07;;;;;;;12.18;4.72;;;;;;;20.56;78.00;101524.78;5062448;28;20029;-68
2023/09/22 10:55:37;;;;;;;7.32;5.55;;;;;;;20.50;78.96;101511.22;5064290;28;20021;-69
2023/09/22 10:58:09;;;;;;;7.85;4.47;;;;;;;20.55;79.15;101520.41;5064506;28;20029;-69
2023/09/22 11:00:37;;;;;;;7.47;3.78;;;;;;;20.60;79.00;101512.50;5064674;28;20021;-69
2023/09/22 11:03:05;;;;;;;8.25;4.30;;;;;;;20.69;79.11;101518.50;5065892;28;20040;-68
2023/09/22 11:05:30;;;;;;;6.82;4.40;;;;;;;20.62;79.59;101515.81;5066979;28;20089;-71
2023/09/22 11:07:56;;;;;;;10.23;4.15;;;;;;;20.63;79.55;101512.06;5053255;28;20116;-69
2023/09/22 11:10:22;;;;;;;6.78;4.47;;;;;;;20.60;80.01;101511.66;5053481;28;20111;-68
2023/09/22 11:12:49;;;;;;;9.02;4.53;;;;;;;20.45;80.78;101487.50;5052372;28;20040;-68
2023/09/22 11:15:15;;;;;;;6.50;4.30;;;;;;;20.53;80.65;101484.63;5052392;28;20123;-69
2023/09/22 11:17:42;;;;;;;6.78;5.43;;;;;;;20.69;80.86;101503.09;5052805;28;20071;-66